AirNav   Pilot Hours Calculator
 
 986 users online  

CD40 Hilltop Heliport
Franktown, Colorado, USA

GOING TO FRANKTOWN?


FAA INFORMATION EFFECTIVE 26 MARCH 2020

Location

FAA Identifier: CD40
Lat/Long: 39-25-45.9580N 104-39-31.8980W
39-25.765967N 104-39.531633W
39.4294328,-104.6588606
(estimated)
Elevation: 6737 ft. / 2053 m (estimated)
Variation: 11E (1985)
From city: 5 miles NE of FRANKTOWN, CO
Time zone: UTC -6 (UTC -7 during Standard Time)
Zip code: 80107

Heliport Operations

Heliport use: Private use. Permission required prior to landing
Activation date: 02/1988
Control tower: no
ARTCC: DENVER CENTER
FSS: DENVER FLIGHT SERVICE STATION
Attendance: UNATNDD
Segmented circle: no

Heliport Communications

WX ASOS at APA (12 nm NW): PHONE 720-873-2799

Nearby radio navigation aids

VOR radial/distance  VOR name  Freq  Var
FQFr175/15.7FALCON VORTAC116.3011E
DENr172/23.0DENVER VOR/DME117.9008E
DVVr175/28.0MILE HIGH VORTAC114.7008E
BRKr350/29.1BLACK FOREST VOR/DME112.5008E
BJCr132/36.5JEFFCO VOR/DME115.4011E

Heliport Services

Runway Information

Helipad H1

Dimensions: 100 x 100 ft. / 30 x 30 m
Surface: turf
Traffic pattern: leftleft

Heliport Ownership and Management from official FAA records

Ownership: Privately-owned
Owner: CENTURYLINK
9666 METRO AIRPORT AVE
BROOMFIELD, CO 80012
Phone (303) 643-4972
Manager: DARREN ALMSKOG
9666 METRO AIRPORT AVE
BROOMFIELD, CO 80012
Phone (303) 304-9960
LYLE BORDERS 303-643-4963

Additional Remarks

FOR CD CTC DENVER APCH AT 303-342-1916.

Instrument Procedures

There are no published instrument procedures at CD40.

Some nearby airports with instrument procedures:

KAPA - Centennial Airport (12 nm NW)
KBKF - Buckley Air Force Base (17 nm N)
KCFO - Colorado Air and Space Port Airport (22 nm N)
KDEN - Denver International Airport (26 nm N)
KBJC - Rocky Mountain Metropolitan Airport (36 nm NW)
 
Loc | Ops | Rwys | IFR | FBO | Links
Com | Nav | Svcs | Stats | Notes

AirBoss

 
Area around CD40 (Hilltop Heliport)
 
Road maps at: MapQuest Bing Google
 
Aerial photo
No photo
 
Sectional chart

 
Airport distance calculator
Flying to Hilltop Heliport? Find the distance to fly.

From to CD40

Sunrise and sunset
Times for 08-Apr-2020
 Local
(UTC-6)
 Zulu
(UTC)
Morning civil twilight06:0412:04
Sunrise06:3112:31
Sunset19:2901:29
Evening civil twilight19:5701:57

Current date and time
Zulu (UTC)  08-Apr-2020 22:17:13
Local (UTC-6)  08-Apr-2020 16:17:13
 
METAR
KAPA 
12nm NW 
082153Z VRB03KT 10SM FEW080 FEW220 20/M07 A3004 RMK AO2 SLP134 T02001067
KMNH 
13nm S 
082149Z AUTO 04006KT 10SM CLR 17/M09 A3011 RMK AO2
KBKF 
18nm N 
082158Z 01008KT 10SM FEW090 FEW220 21/M05 A3004 RMK AO2A SLP130 T02071052
KCFO 
22nm N 
082155Z 00000KT 10SM SCT100 20/M06 A3005
TAF
KAPA 
12nm NW 
081739Z 0818/0918 02010KT P6SM FEW100 SCT220 FM082200 34011KT P6SM FEW100 SCT220 FM090200 29007KT P6SM SCT080 SCT120 SCT200 FM090700 02011KT P6SM FEW050 BKN080 FM091200 03009KT P6SM SCT025 BKN040
KBKF 
18nm N 
081701Z 0817/0923 32012KT 9999 SKC QNH3005INS BECMG 0901/0902 VRB06KT 9999 SKC QNH3002INS BECMG 0911/0912 VRB06KT 9999 SCT010 QNH3002INS TX19/0822Z TN02/0912Z
NOTAMs
Click for the latest NOTAMs
NOTAMs are issued by the DoD/FAA and will open in a separate window not controlled by AirNav.

 

 
 

Would you like to see your business listed on this page?

 If your business provides an interesting product or service to pilots, flight crews, aircraft, or users of the Hilltop Heliport, you should consider listing it here.  To start the listing process, click on the button below
 
Add a business
 

Other Pages about Hilltop Heliport

Update a link
 
Copyright © AirNav, LLC. All rights reserved. Privacy Policy  Contact